createdAt,value
2018-09-29T00:00:46.078Z,53.94
2018-09-29T00:03:14.207Z,53.96
2018-09-29T00:05:42.537Z,53.92
2018-09-29T00:08:10.508Z,53.94
2018-09-29T00:10:38.575Z,53.99
2018-09-29T00:13:06.656Z,54.08
2018-09-29T00:15:34.720Z,54.18
2018-09-29T00:18:02.817Z,54.21
2018-09-29T00:20:30.938Z,54.36
2018-09-29T00:22:59.031Z,54.54
2018-09-29T00:25:27.347Z,54.48
2018-09-29T00:27:55.419Z,54.57
2018-09-29T00:30:23.704Z,54.69
2018-09-29T00:32:51.779Z,54.75
2018-09-29T00:35:19.898Z,54.80
2018-09-29T00:37:47.970Z,54.92
2018-09-29T00:40:16.053Z,55.01
2018-09-29T00:42:44.131Z,55.08
2018-09-29T00:45:12.247Z,55.17
2018-09-29T00:47:40.319Z,55.19
2018-09-29T00:50:08.403Z,55.22
2018-09-29T00:52:36.475Z,55.34
2018-09-29T00:55:04.559Z,55.44
2018-09-29T00:57:32.640Z,55.52
2018-09-29T01:00:00.726Z,55.60
2018-09-29T01:02:28.909Z,55.66
2018-09-29T01:04:57.055Z,55.69
2018-09-29T01:07:25.095Z,55.75
2018-09-29T01:09:53.207Z,55.79
2018-09-29T01:12:21.379Z,55.76
2018-09-29T01:14:49.473Z,55.80
2018-09-29T01:17:17.632Z,55.93
2018-09-29T01:19:45.839Z,56.04
2018-09-29T01:22:13.910Z,56.20
2018-09-29T01:24:42.050Z,56.37
2018-09-29T01:27:10.129Z,56.52
2018-09-29T01:29:38.351Z,56.57
2018-09-29T01:32:06.434Z,56.57
2018-09-29T01:34:34.507Z,56.70
2018-09-29T01:37:02.586Z,56.78
2018-09-29T01:39:30.658Z,56.98
2018-09-29T01:41:58.735Z,56.88
2018-09-29T01:44:26.841Z,56.87
2018-09-29T01:46:54.903Z,56.95
2018-09-29T01:49:22.975Z,57.01
2018-09-29T01:51:51.056Z,57.08
2018-09-29T01:54:19.126Z,57.29
2018-09-29T01:56:47.207Z,57.38
2018-09-29T01:59:15.279Z,57.44
2018-09-29T02:01:43.361Z,57.49
2018-09-29T02:04:11.441Z,57.49
2018-09-29T02:06:39.511Z,57.57
2018-09-29T02:09:08.118Z,57.48
2018-09-29T02:11:36.255Z,57.50
2018-09-29T02:14:04.569Z,57.57
2018-09-29T02:16:32.692Z,57.55
2018-09-29T02:19:00.769Z,57.57
2018-09-29T02:21:28.849Z,57.60
2018-09-29T02:23:57.012Z,57.60
2018-09-29T02:26:25.099Z,57.64
2018-09-29T02:28:53.243Z,57.73
2018-09-29T02:31:21.257Z,57.73
2018-09-29T02:33:49.357Z,57.80
2018-09-29T02:36:17.478Z,57.86
2018-09-29T02:38:45.547Z,57.93
2018-09-29T02:41:13.613Z,58.03
2018-09-29T02:43:41.857Z,58.06
2018-09-29T02:46:09.921Z,58.21
2018-09-29T02:48:38.004Z,58.35
2018-09-29T02:51:06.148Z,58.38
2018-09-29T02:53:34.228Z,58.44
2018-09-29T02:56:02.498Z,58.70
2018-09-29T02:58:30.574Z,58.70
2018-09-29T03:00:58.642Z,58.73
2018-09-29T03:03:26.762Z,58.82
2018-09-29T03:05:54.842Z,59.01
2018-09-29T03:08:22.921Z,58.92
2018-09-29T03:10:50.989Z,58.87
2018-09-29T03:13:19.073Z,58.85
2018-09-29T03:15:47.141Z,58.81
2018-09-29T03:18:15.219Z,58.91
2018-09-29T03:20:43.285Z,58.98
2018-09-29T03:23:11.466Z,58.93
2018-09-29T03:25:39.515Z,58.94
2018-09-29T03:28:07.624Z,58.87
2018-09-29T03:30:35.689Z,59.09
2018-09-29T03:33:03.777Z,59.12
2018-09-29T03:35:31.845Z,59.32
2018-09-29T03:37:59.921Z,59.30
2018-09-29T03:40:27.998Z,59.45
2018-09-29T03:42:56.061Z,59.38
2018-09-29T03:45:24.141Z,59.39
2018-09-29T03:47:52.243Z,59.43
2018-09-29T03:50:20.381Z,59.53
2018-09-29T03:52:48.446Z,59.57
2018-09-29T03:55:16.524Z,59.58
2018-09-29T03:57:44.593Z,59.52
2018-09-29T04:00:12.670Z,59.47
2018-09-29T04:02:40.881Z,59.55
2018-09-29T04:05:08.923Z,59.57
2018-09-29T04:07:36.992Z,59.54
2018-09-29T04:10:05.073Z,59.86
2018-09-29T04:12:33.271Z,59.98
2018-09-29T04:15:01.417Z,59.96
2018-09-29T04:17:29.485Z,59.98
2018-09-29T04:19:57.662Z,59.92
2018-09-29T04:22:25.729Z,59.84
2018-09-29T04:24:53.806Z,59.89
2018-09-29T04:27:21.882Z,59.97
2018-09-29T04:29:49.957Z,59.96
2018-09-29T04:32:18.936Z,60.03
2018-09-29T04:34:47.016Z,59.94
2018-09-29T04:37:15.089Z,59.93
2018-09-29T04:39:43.170Z,59.92
2018-09-29T04:42:11.241Z,60.04
2018-09-29T04:44:39.422Z,60.09
2018-09-29T04:47:07.500Z,60.18
2018-09-29T04:49:35.572Z,60.18
2018-09-29T04:52:03.643Z,60.12
2018-09-29T04:54:31.714Z,60.22
2018-09-29T04:56:59.890Z,60.12
2018-09-29T04:59:27.950Z,60.12
2018-09-29T05:01:56.030Z,60.11
2018-09-29T05:04:24.275Z,60.15
2018-09-29T05:06:52.353Z,60.16
2018-09-29T05:09:20.430Z,60.18
2018-09-29T05:11:48.501Z,60.21
2018-09-29T05:14:16.567Z,60.09
2018-09-29T05:16:44.647Z,60.07
2018-09-29T05:19:12.828Z,60.28
2018-09-29T05:21:40.909Z,60.44
2018-09-29T05:24:09.068Z,60.55
2018-09-29T05:26:37.370Z,60.45
2018-09-29T05:29:05.433Z,60.36
2018-09-29T05:31:33.508Z,60.35
2018-09-29T05:34:01.567Z,60.34
2018-09-29T05:36:29.644Z,60.29
2018-09-29T05:38:57.708Z,60.35
2018-09-29T05:41:25.772Z,60.37
2018-09-29T05:43:53.856Z,60.51
2018-09-29T05:46:21.923Z,60.53
2018-09-29T05:48:50.005Z,60.46
2018-09-29T05:51:18.072Z,60.40
2018-09-29T05:53:46.213Z,60.47
2018-09-29T05:56:14.219Z,60.51
2018-09-29T05:58:42.306Z,60.37
2018-09-29T06:01:10.369Z,60.44
2018-09-29T06:03:38.542Z,60.45
2018-09-29T06:06:06.643Z,60.61
2018-09-29T06:08:34.734Z,60.74
2018-09-29T06:11:02.779Z,61.40
2018-09-29T06:13:30.905Z,61.87
2018-09-29T06:15:58.926Z,62.09
2018-09-29T06:18:27.006Z,62.31
2018-09-29T06:20:55.098Z,62.34
2018-09-29T06:23:23.140Z,62.15
2018-09-29T06:25:51.290Z,61.89
2018-09-29T06:28:19.385Z,61.99
2018-09-29T06:30:47.948Z,61.80
2018-09-29T06:33:16.026Z,61.72
2018-09-29T06:35:44.099Z,61.75
2018-09-29T06:38:12.169Z,61.17
2018-09-29T06:40:40.460Z,61.22
2018-09-29T06:43:08.475Z,61.15
2018-09-29T06:45:36.597Z,60.86
2018-09-29T06:48:04.803Z,60.50
2018-09-29T06:50:32.849Z,60.18
2018-09-29T06:53:01.010Z,60.05
2018-09-29T06:55:29.092Z,60.09
2018-09-29T06:57:57.258Z,60.02
2018-09-29T07:00:25.444Z,59.94
2018-09-29T07:02:53.640Z,59.81
2018-09-29T07:05:21.697Z,59.75
2018-09-29T07:07:49.753Z,59.74
2018-09-29T07:10:17.942Z,59.67
2018-09-29T07:12:46.140Z,59.68
2018-09-29T07:15:14.290Z,59.69
2018-09-29T07:17:42.457Z,59.72
2018-09-29T07:20:10.637Z,59.70
2018-09-29T07:22:38.959Z,59.67
2018-09-29T07:25:07.103Z,59.58
2018-09-29T07:27:35.171Z,59.53
2018-09-29T07:30:03.341Z,59.50
2018-09-29T07:32:31.413Z,59.45
2018-09-29T07:34:59.587Z,59.47
2018-09-29T07:37:27.705Z,59.27
2018-09-29T07:39:55.782Z,59.09
2018-09-29T07:42:23.818Z,58.99
2018-09-29T07:44:51.886Z,58.82
2018-09-29T07:47:19.969Z,58.66
2018-09-29T07:49:48.111Z,58.43
2018-09-29T07:52:16.223Z,58.09
2018-09-29T07:54:44.371Z,57.91
2018-09-29T07:57:12.702Z,57.73
2018-09-29T07:59:40.773Z,57.35
2018-09-29T08:02:08.854Z,57.26
2018-09-29T08:04:36.962Z,57.41
2018-09-29T08:07:05.138Z,57.27
2018-09-29T08:09:33.550Z,57.13
2018-09-29T08:12:01.599Z,57.25
2018-09-29T08:14:29.677Z,57.01
2018-09-29T08:16:57.849Z,57.07
2018-09-29T08:19:25.954Z,57.00
2018-09-29T08:21:54.034Z,56.46
2018-09-29T08:24:22.200Z,55.87
2018-09-29T08:26:50.371Z,56.03
2018-09-29T08:29:18.610Z,55.44
2018-09-29T08:31:46.599Z,55.60
2018-09-29T08:34:19.962Z,55.38
2018-09-29T08:36:48.042Z,55.23
2018-09-29T08:39:16.114Z,55.11
2018-09-29T08:41:44.190Z,54.94
2018-09-29T08:44:12.282Z,54.72
2018-09-29T08:46:40.654Z,54.49
2018-09-29T08:49:09.160Z,54.25
2018-09-29T08:51:37.270Z,54.00
2018-09-29T08:54:05.368Z,53.71
2018-09-29T08:56:33.463Z,53.30
2018-09-29T08:59:01.541Z,52.28
2018-09-29T09:01:29.617Z,52.36
2018-09-29T09:03:57.739Z,51.12
2018-09-29T09:06:25.787Z,51.35
2018-09-29T09:08:53.871Z,51.50
2018-09-29T09:11:21.937Z,51.42
2018-09-29T09:13:50.020Z,50.83
2018-09-29T09:16:18.102Z,50.80
2018-09-29T09:18:46.214Z,50.42
2018-09-29T09:21:14.289Z,50.18
2018-09-29T09:23:42.399Z,49.05
2018-09-29T09:26:10.437Z,49.01
2018-09-29T09:28:38.594Z,48.75
2018-09-29T09:31:06.657Z,48.53
2018-09-29T09:33:34.741Z,48.51
2018-09-29T09:36:02.812Z,48.03
2018-09-29T09:38:30.892Z,47.43
2018-09-29T09:40:58.969Z,47.39
2018-09-29T09:43:27.153Z,47.06
2018-09-29T09:45:55.223Z,46.54
2018-09-29T09:48:23.306Z,46.05
2018-09-29T09:50:51.391Z,46.16
2018-09-29T09:53:19.457Z,46.10
2018-09-29T09:55:47.670Z,45.98
2018-09-29T09:58:15.769Z,45.56
2018-09-29T10:00:49.332Z,44.19
2018-09-29T10:03:22.798Z,43.42
2018-09-29T10:05:50.891Z,43.69
2018-09-29T10:08:18.965Z,43.31
2018-09-29T10:10:47.387Z,42.73
2018-09-29T10:13:15.462Z,41.94
2018-09-29T10:15:43.647Z,42.11
2018-09-29T10:18:11.713Z,41.99
2018-09-29T10:20:39.793Z,41.10
2018-09-29T10:23:07.873Z,40.85
2018-09-29T10:25:36.095Z,40.57
2018-09-29T10:28:04.174Z,40.56
2018-09-29T10:30:32.278Z,40.12
2018-09-29T10:33:00.355Z,39.83
2018-09-29T10:35:28.429Z,39.76
2018-09-29T10:37:56.679Z,39.51
2018-09-29T10:40:24.831Z,39.45
2018-09-29T10:42:52.907Z,38.95
2018-09-29T10:45:21.022Z,38.80
2018-09-29T10:47:49.091Z,38.00
2018-09-29T10:50:17.295Z,37.18
2018-09-29T10:52:45.418Z,37.71
2018-09-29T10:55:13.512Z,37.61
2018-09-29T10:57:41.695Z,36.85
2018-09-29T11:00:09.775Z,37.39
2018-09-29T11:02:38.002Z,37.56
2018-09-29T11:05:06.184Z,37.27
2018-09-29T11:07:34.342Z,36.65
2018-09-29T11:10:02.416Z,36.35
2018-09-29T11:12:30.489Z,36.48
2018-09-29T11:14:58.654Z,35.86
2018-09-29T11:17:26.847Z,36.07
2018-09-29T11:19:54.955Z,36.32
2018-09-29T11:22:23.184Z,36.51
2018-09-29T11:24:51.255Z,36.70
2018-09-29T11:27:19.334Z,36.09
2018-09-29T11:29:47.405Z,35.88
2018-09-29T11:32:15.580Z,35.42
2018-09-29T11:34:43.650Z,35.87
2018-09-29T11:37:11.824Z,35.89
2018-09-29T11:39:39.983Z,35.89
2018-09-29T11:42:08.148Z,35.75
2018-09-29T11:44:36.282Z,34.94
2018-09-29T11:47:04.308Z,34.98
2018-09-29T11:49:32.386Z,35.10
2018-09-29T11:52:00.465Z,35.16
2018-09-29T11:54:28.546Z,35.23
2018-09-29T11:56:56.618Z,34.90
2018-09-29T11:59:24.700Z,35.12
2018-09-29T12:01:52.847Z,34.56
2018-09-29T12:04:20.863Z,34.21
2018-09-29T12:06:48.933Z,33.60
2018-09-29T12:09:17.018Z,34.21
2018-09-29T12:11:45.094Z,33.98
2018-09-29T12:14:13.181Z,32.76
2018-09-29T12:16:41.250Z,33.61
2018-09-29T12:19:09.329Z,33.73
2018-09-29T12:21:37.406Z,33.31
2018-09-29T12:24:05.507Z,33.25
2018-09-29T12:26:33.689Z,33.04
2018-09-29T12:29:01.862Z,33.13
2018-09-29T12:31:29.833Z,32.41
2018-09-29T12:33:57.912Z,32.77
2018-09-29T12:36:25.982Z,32.58
2018-09-29T12:38:54.097Z,32.28
2018-09-29T12:41:22.167Z,31.65
2018-09-29T12:43:50.252Z,30.65
2018-09-29T12:46:18.325Z,30.70
2018-09-29T12:48:46.395Z,31.03
2018-09-29T12:51:14.561Z,31.21
2018-09-29T12:53:42.629Z,30.72
2018-09-29T12:56:10.709Z,30.99
2018-09-29T12:58:38.775Z,30.79
2018-09-29T13:01:06.856Z,30.27
2018-09-29T13:03:34.930Z,28.45
2018-09-29T13:06:03.011Z,28.65
2018-09-29T13:08:31.088Z,28.77
2018-09-29T13:10:59.306Z,29.22
2018-09-29T13:13:27.327Z,28.81
2018-09-29T13:15:55.404Z,28.90
2018-09-29T13:18:23.553Z,29.17
2018-09-29T13:20:51.787Z,28.59
2018-09-29T13:23:19.867Z,28.54
2018-09-29T13:25:47.946Z,28.33
2018-09-29T13:28:16.058Z,27.95
2018-09-29T13:30:44.145Z,28.14
2018-09-29T13:33:12.221Z,27.11
2018-09-29T13:35:40.447Z,27.26
2018-09-29T13:38:08.527Z,27.36
2018-09-29T13:40:36.610Z,26.82
2018-09-29T13:43:04.686Z,26.64
2018-09-29T13:45:32.768Z,26.82
2018-09-29T13:48:00.841Z,26.86
2018-09-29T13:50:28.926Z,26.94
2018-09-29T13:52:57.082Z,26.79
2018-09-29T13:55:25.151Z,26.97
2018-09-29T13:57:53.237Z,27.13
2018-09-29T14:00:21.310Z,27.20
2018-09-29T14:02:49.393Z,27.03
2018-09-29T14:05:17.548Z,26.55
2018-09-29T14:07:45.638Z,26.68
2018-09-29T14:10:13.713Z,26.42
2018-09-29T14:12:41.799Z,26.50
2018-09-29T14:15:09.873Z,26.70
2018-09-29T14:17:37.993Z,26.74
2018-09-29T14:20:06.959Z,26.55
2018-09-29T14:22:35.040Z,26.61
2018-09-29T14:25:03.105Z,26.70
2018-09-29T14:27:31.190Z,26.41
2018-09-29T14:29:59.319Z,26.56
2018-09-29T14:32:27.377Z,26.77
2018-09-29T14:34:55.452Z,26.42
2018-09-29T14:37:23.556Z,25.93
2018-09-29T14:39:51.620Z,26.21
2018-09-29T14:42:19.703Z,26.08
2018-09-29T14:44:47.770Z,26.24
2018-09-29T14:47:15.853Z,26.69
2018-09-29T14:49:43.941Z,26.36
2018-09-29T14:52:12.042Z,26.48
2018-09-29T14:54:40.089Z,26.06
2018-09-29T14:57:08.157Z,26.21
2018-09-29T14:59:36.344Z,26.64
2018-09-29T15:02:04.376Z,26.39
2018-09-29T15:04:32.484Z,26.48
2018-09-29T15:07:00.576Z,26.67
2018-09-29T15:09:28.661Z,27.03
2018-09-29T15:11:56.738Z,27.18
2018-09-29T15:14:24.825Z,27.15
2018-09-29T15:16:52.897Z,27.28
2018-09-29T15:19:20.978Z,27.12
2018-09-29T15:21:49.055Z,27.17
2018-09-29T15:24:17.140Z,27.03
2018-09-29T15:26:45.211Z,26.14
2018-09-29T15:29:13.288Z,26.31
2018-09-29T15:31:41.414Z,26.25
2018-09-29T15:34:09.496Z,26.84
2018-09-29T15:36:37.563Z,26.74
2018-09-29T15:39:08.193Z,26.59
2018-09-29T15:41:36.417Z,26.93
2018-09-29T15:44:04.713Z,27.20
2018-09-29T15:46:32.807Z,27.45
2018-09-29T15:49:00.898Z,27.75
2018-09-29T15:51:29.026Z,28.09
2018-09-29T15:53:57.106Z,28.34
2018-09-29T15:56:25.209Z,27.90
2018-09-29T15:58:53.310Z,27.76
2018-09-29T16:01:21.389Z,28.11
2018-09-29T16:03:49.486Z,28.11
2018-09-29T16:06:17.625Z,28.45
2018-09-29T16:08:45.777Z,29.29
2018-09-29T16:11:13.869Z,29.35
2018-09-29T16:13:42.020Z,29.52
2018-09-29T16:16:10.103Z,29.70
2018-09-29T16:18:38.264Z,29.60
2018-09-29T16:21:06.389Z,30.19
2018-09-29T16:23:34.676Z,30.73
2018-09-29T16:26:03.068Z,31.27
2018-09-29T16:28:31.143Z,31.84
2018-09-29T16:30:59.319Z,32.32
2018-09-29T16:33:27.426Z,32.70
2018-09-29T16:35:55.515Z,33.00
2018-09-29T16:38:23.733Z,33.37
2018-09-29T16:40:51.743Z,33.75
2018-09-29T16:43:19.976Z,34.04
2018-09-29T16:45:48.029Z,34.25
2018-09-29T16:48:16.166Z,34.57
2018-09-29T16:50:44.418Z,34.78
2018-09-29T16:53:12.458Z,34.86
2018-09-29T16:55:40.616Z,34.90
2018-09-29T16:58:08.691Z,34.95
2018-09-29T17:00:36.850Z,35.06
2018-09-29T17:03:04.920Z,35.22
2018-09-29T17:05:33.030Z,35.44
2018-09-29T17:08:01.157Z,35.67
2018-09-29T17:10:29.343Z,36.00
2018-09-29T17:12:57.433Z,36.37
2018-09-29T17:15:25.507Z,36.76
2018-09-29T17:17:53.586Z,36.93
2018-09-29T17:20:21.725Z,37.27
2018-09-29T17:22:49.924Z,37.78
2018-09-29T17:25:18.022Z,38.13
2018-09-29T17:27:46.125Z,38.71
2018-09-29T17:30:14.204Z,39.47
2018-09-29T17:32:42.292Z,40.29
2018-09-29T17:35:10.370Z,40.98
2018-09-29T17:37:38.466Z,41.30
2018-09-29T17:40:06.537Z,41.77
2018-09-29T17:42:35.050Z,42.14
2018-09-29T17:45:03.221Z,42.33
2018-09-29T17:47:31.215Z,42.36
2018-09-29T17:49:59.290Z,42.50
2018-09-29T17:52:27.462Z,42.71
2018-09-29T17:54:55.540Z,43.00
2018-09-29T17:57:23.621Z,43.24
2018-09-29T17:59:51.692Z,43.65
2018-09-29T18:02:19.786Z,43.90
2018-09-29T18:04:47.873Z,44.04
2018-09-29T18:07:15.946Z,44.33
2018-09-29T18:09:44.028Z,44.49
2018-09-29T18:12:13.028Z,44.59
2018-09-29T18:14:41.114Z,44.69
2018-09-29T18:17:09.192Z,44.81
2018-09-29T18:19:37.284Z,45.02
2018-09-29T18:22:05.364Z,45.16
2018-09-29T18:24:33.450Z,45.30
2018-09-29T18:27:01.541Z,45.43
2018-09-29T18:29:29.854Z,45.56
2018-09-29T18:31:57.975Z,45.71
2018-09-29T18:34:26.154Z,45.89
2018-09-29T18:36:54.229Z,46.15
2018-09-29T18:39:22.314Z,46.46
2018-09-29T18:41:50.386Z,46.67
2018-09-29T18:44:18.560Z,46.85
2018-09-29T18:46:46.642Z,46.92
2018-09-29T18:49:14.808Z,47.00
2018-09-29T18:51:42.943Z,47.02
2018-09-29T18:54:11.001Z,47.19
2018-09-29T18:56:39.070Z,47.29
2018-09-29T18:59:07.226Z,47.33
2018-09-29T19:01:35.301Z,47.60
2018-09-29T19:04:03.386Z,47.70
2018-09-29T19:06:31.471Z,47.69
2018-09-29T19:08:59.631Z,47.83
2018-09-29T19:11:27.630Z,48.09
2018-09-29T19:13:55.711Z,48.26
2018-09-29T19:16:23.785Z,48.49
2018-09-29T19:18:51.865Z,48.57
2018-09-29T19:21:19.949Z,48.60
2018-09-29T19:23:48.022Z,48.62
2018-09-29T19:26:16.107Z,48.71
2018-09-29T19:28:44.181Z,48.87
2018-09-29T19:31:12.262Z,49.02
2018-09-29T19:33:40.459Z,49.05
2018-09-29T19:36:08.490Z,49.24
2018-09-29T19:38:36.844Z,49.46
2018-09-29T19:41:05.052Z,49.72
2018-09-29T19:43:33.258Z,49.70
2018-09-29T19:46:01.331Z,49.62
2018-09-29T19:48:29.411Z,49.71
2018-09-29T19:50:57.503Z,50.06
2018-09-29T19:53:25.578Z,50.23
2018-09-29T19:55:53.665Z,50.23
2018-09-29T19:58:21.792Z,50.16
2018-09-29T20:00:49.814Z,50.13
2018-09-29T20:03:17.886Z,50.20
2018-09-29T20:05:45.978Z,50.43
2018-09-29T20:08:14.047Z,50.51
2018-09-29T20:10:42.130Z,50.62
2018-09-29T20:13:10.197Z,50.69
2018-09-29T20:15:38.268Z,50.77
2018-09-29T20:18:06.686Z,50.91
2018-09-29T20:20:34.806Z,51.05
2018-09-29T20:23:02.903Z,51.03
2018-09-29T20:25:30.990Z,51.04
2018-09-29T20:27:59.078Z,51.17
2018-09-29T20:30:27.153Z,51.18
2018-09-29T20:32:55.235Z,51.19
2018-09-29T20:35:23.362Z,51.27
2018-09-29T20:37:51.451Z,51.37
2018-09-29T20:40:19.529Z,51.57
2018-09-29T20:42:47.616Z,51.55
2018-09-29T20:45:15.688Z,51.68
2018-09-29T20:47:43.780Z,51.79
2018-09-29T20:50:12.230Z,51.78
2018-09-29T20:52:40.319Z,51.76
2018-09-29T20:55:08.427Z,51.77
2018-09-29T20:57:36.525Z,51.86
2018-09-29T21:00:04.595Z,52.05
2018-09-29T21:02:32.721Z,52.09
2018-09-29T21:05:00.867Z,52.12
2018-09-29T21:07:28.951Z,52.21
2018-09-29T21:09:57.018Z,52.38
2018-09-29T21:12:25.098Z,52.61
2018-09-29T21:14:53.172Z,52.52
2018-09-29T21:17:21.310Z,52.58
2018-09-29T21:19:49.380Z,52.76
2018-09-29T21:22:17.458Z,52.89
2018-09-29T21:24:45.534Z,53.03
2018-09-29T21:27:13.685Z,53.09
2018-09-29T21:29:41.782Z,53.12
2018-09-29T21:32:09.850Z,53.16
2018-09-29T21:34:37.929Z,53.18
2018-09-29T21:37:06.181Z,53.16
2018-09-29T21:39:34.374Z,53.28
2018-09-29T21:42:02.447Z,53.32
2018-09-29T21:44:30.525Z,53.52
2018-09-29T21:46:58.599Z,53.83
2018-09-29T21:49:26.692Z,53.89
2018-09-29T21:51:54.765Z,53.82
2018-09-29T21:54:22.937Z,53.77
2018-09-29T21:56:51.035Z,53.72
2018-09-29T21:59:19.172Z,53.64
2018-09-29T22:01:47.443Z,53.59
2018-09-29T22:04:15.551Z,53.62
2018-09-29T22:06:43.625Z,53.68
2018-09-29T22:09:20.900Z,53.71
2018-09-29T22:11:49.120Z,53.75
2018-09-29T22:14:17.198Z,53.83
2018-09-29T22:16:45.278Z,53.84
2018-09-29T22:19:13.493Z,53.86
2018-09-29T22:21:41.610Z,53.90
2018-09-29T22:24:09.855Z,53.95
2018-09-29T22:26:37.930Z,54.10
2018-09-29T22:29:06.398Z,54.18
2018-09-29T22:31:34.500Z,54.20
2018-09-29T22:34:02.579Z,54.17
2018-09-29T22:36:30.657Z,54.22
2018-09-29T22:38:58.730Z,54.18
2018-09-29T22:41:26.809Z,54.19
2018-09-29T22:43:54.875Z,54.10
2018-09-29T22:46:22.960Z,54.19
2018-09-29T22:48:51.477Z,54.38
2018-09-29T22:51:19.622Z,54.37
2018-09-29T22:53:47.704Z,54.52
2018-09-29T22:56:15.781Z,54.51
2018-09-29T22:58:43.847Z,54.50
2018-09-29T23:01:11.915Z,54.57
2018-09-29T23:03:40.173Z,54.57
2018-09-29T23:06:08.264Z,54.60
2018-09-29T23:08:36.367Z,54.63
2018-09-29T23:11:04.443Z,54.72
2018-09-29T23:13:32.513Z,54.79
2018-09-29T23:16:00.591Z,54.83
2018-09-29T23:18:28.661Z,54.95
2018-09-29T23:20:56.907Z,54.95
2018-09-29T23:23:24.986Z,55.06
2018-09-29T23:25:53.090Z,55.14
2018-09-29T23:28:21.151Z,55.17
2018-09-29T23:30:49.220Z,55.23
2018-09-29T23:33:17.360Z,55.28
2018-09-29T23:35:45.447Z,55.42
2018-09-29T23:38:13.519Z,55.56
2018-09-29T23:40:41.590Z,55.72
2018-09-29T23:43:09.689Z,55.73
2018-09-29T23:45:37.828Z,55.76
2018-09-29T23:48:05.919Z,55.81
2018-09-29T23:50:34.008Z,55.76
2018-09-29T23:53:02.084Z,55.73
2018-09-29T23:55:30.152Z,55.69
2018-09-29T23:57:58.225Z,55.71
